sensor_id;sensor_type;location;lat;lon;timestamp;pressure;altitude;pressure_sealevel;temperature;humidity
74868;BME280;63419;42.262;12.210;2023-08-06T00:00:49;96736.00;;;22.35;100.00
74868;BME280;63419;42.262;12.210;2023-08-06T00:03:15;96745.59;;;21.56;100.00
74868;BME280;63419;42.262;12.210;2023-08-06T00:05:42;96742.34;;;21.76;100.00
74868;BME280;63419;42.262;12.210;2023-08-06T00:08:09;96746.31;;;21.35;100.00
74868;BME280;63419;42.262;12.210;2023-08-06T00:10:35;96732.31;;;22.29;100.00
74868;BME280;63419;42.262;12.210;2023-08-06T00:13:01;96747.22;;;21.06;100.00
74868;BME280;63419;42.262;12.210;2023-08-06T00:15:28;96734.81;;;21.94;100.00
74868;BME280;63419;42.262;12.210;2023-08-06T00:17:54;96725.38;;;22.21;100.00
74868;BME280;63419;42.262;12.210;2023-08-06T00:20:20;96727.88;;;22.30;100.00
74868;BME280;63419;42.262;12.210;2023-08-06T00:22:47;96748.84;;;21.43;100.00
74868;BME280;63419;42.262;12.210;2023-08-06T00:25:13;96753.16;;;21.66;100.00
74868;BME280;63419;42.262;12.210;2023-08-06T00:27:39;96752.03;;;21.39;100.00
74868;BME280;63419;42.262;12.210;2023-08-06T00:30:06;96760.34;;;21.57;100.00
74868;BME280;63419;42.262;12.210;2023-08-06T00:32:32;96734.81;;;21.94;100.00
74868;BME280;63419;42.262;12.210;2023-08-06T00:34:58;96726.59;;;22.25;100.00
74868;BME280;63419;42.262;12.210;2023-08-06T00:37:24;96724.75;;;22.48;100.00
74868;BME280;63419;42.262;12.210;2023-08-06T00:39:50;96730.25;;;22.03;100.00
74868;BME280;63419;42.262;12.210;2023-08-06T00:42:16;96728.19;;;22.20;100.00
74868;BME280;63419;42.262;12.210;2023-08-06T00:44:46;96731.13;;;22.32;100.00
74868;BME280;63419;42.262;12.210;2023-08-06T00:47:13;96761.88;;;21.00;100.00
74868;BME280;63419;42.262;12.210;2023-08-06T00:49:39;96755.47;;;21.54;100.00
74868;BME280;63419;42.262;12.210;2023-08-06T00:52:07;96740.06;;;21.94;100.00
74868;BME280;63419;42.262;12.210;2023-08-06T00:54:36;96716.88;;;22.19;100.00
74868;BME280;63419;42.262;12.210;2023-08-06T00:57:04;96730.03;;;21.98;100.00
74868;BME280;63419;42.262;12.210;2023-08-06T00:59:33;96723.47;;;22.09;100.00
74868;BME280;63419;42.262;12.210;2023-08-06T01:02:00;96730.84;;;21.40;100.00
74868;BME280;63419;42.262;12.210;2023-08-06T01:04:26;96729.66;;;21.58;100.00
74868;BME280;63419;42.262;12.210;2023-08-06T01:07:27;96727.34;;;21.48;100.00
74868;BME280;63419;42.262;12.210;2023-08-06T01:13:43;96722.81;;;22.06;100.00
74868;BME280;63419;42.262;12.210;2023-08-06T01:16:17;96720.06;;;22.15;100.00
74868;BME280;63419;42.262;12.210;2023-08-06T01:18:44;96722.31;;;22.18;100.00
74868;BME280;63419;42.262;12.210;2023-08-06T01:21:16;96713.38;;;21.91;100.00
74868;BME280;63419;42.262;12.210;2023-08-06T01:23:43;96714.81;;;22.15;100.00
74868;BME280;63419;42.262;12.210;2023-08-06T01:31:52;96712.81;;;21.95;100.00
74868;BME280;63419;42.262;12.210;2023-08-06T01:34:24;96719.03;;;21.88;100.00
74868;BME280;63419;42.262;12.210;2023-08-06T01:36:52;96715.78;;;22.14;100.00
74868;BME280;63419;42.262;12.210;2023-08-06T01:39:18;96722.34;;;21.75;100.00
74868;BME280;63419;42.262;12.210;2023-08-06T01:41:49;96728.59;;;21.52;100.00
74868;BME280;63419;42.262;12.210;2023-08-06T01:44:16;96719.91;;;21.73;100.00
74868;BME280;63419;42.262;12.210;2023-08-06T01:46:43;96724.09;;;21.89;100.00
74868;BME280;63419;42.262;12.210;2023-08-06T01:49:09;96741.78;;;20.92;100.00
74868;BME280;63419;42.262;12.210;2023-08-06T01:51:35;96745.50;;;20.83;100.00
74868;BME280;63419;42.262;12.210;2023-08-06T01:54:01;96749.47;;;21.09;100.00
74868;BME280;63419;42.262;12.210;2023-08-06T01:56:27;96729.41;;;21.38;100.00
74868;BME280;63419;42.262;12.210;2023-08-06T01:58:53;96757.41;;;20.41;100.00
74868;BME280;63419;42.262;12.210;2023-08-06T02:01:19;96751.13;;;20.95;100.00
74868;BME280;63419;42.262;12.210;2023-08-06T02:03:45;96748.03;;;20.62;100.00
74868;BME280;63419;42.262;12.210;2023-08-06T02:06:11;96757.44;;;20.71;100.00
74868;BME280;63419;42.262;12.210;2023-08-06T02:08:38;96742.69;;;21.00;100.00
74868;BME280;63419;42.262;12.210;2023-08-06T02:11:05;96751.91;;;20.66;100.00
74868;BME280;63419;42.262;12.210;2023-08-06T02:13:31;96750.94;;;20.67;100.00
74868;BME280;63419;42.262;12.210;2023-08-06T02:15:57;96738.09;;;20.87;100.00
74868;BME280;63419;42.262;12.210;2023-08-06T02:18:24;96739.44;;;20.98;100.00
74868;BME280;63419;42.262;12.210;2023-08-06T02:21:00;96739.38;;;21.27;100.00
74868;BME280;63419;42.262;12.210;2023-08-06T02:23:27;96737.44;;;21.51;100.00
74868;BME280;63419;42.262;12.210;2023-08-06T02:26:11;96732.06;;;21.23;100.00
74868;BME280;63419;42.262;12.210;2023-08-06T02:28:37;96739.63;;;21.11;100.00
74868;BME280;63419;42.262;12.210;2023-08-06T02:31:03;96731.22;;;21.01;100.00
74868;BME280;63419;42.262;12.210;2023-08-06T02:33:29;96739.91;;;20.86;100.00
74868;BME280;63419;42.262;12.210;2023-08-06T02:36:03;96741.44;;;20.96;100.00
74868;BME280;63419;42.262;12.210;2023-08-06T02:38:30;96726.53;;;21.33;100.00
74868;BME280;63419;42.262;12.210;2023-08-06T02:40:56;96717.72;;;21.40;100.00
74868;BME280;63419;42.262;12.210;2023-08-06T02:43:23;96707.34;;;21.47;100.00
74868;BME280;63419;42.262;12.210;2023-08-06T02:45:49;96712.78;;;21.30;100.00
74868;BME280;63419;42.262;12.210;2023-08-06T02:48:15;96708.97;;;21.48;100.00
74868;BME280;63419;42.262;12.210;2023-08-06T02:50:44;96707.63;;;21.37;100.00
74868;BME280;63419;42.262;12.210;2023-08-06T02:53:10;96716.16;;;21.24;100.00
74868;BME280;63419;42.262;12.210;2023-08-06T02:55:36;96697.53;;;21.19;100.00
74868;BME280;63419;42.262;12.210;2023-08-06T02:58:03;96702.44;;;20.92;100.00
74868;BME280;63419;42.262;12.210;2023-08-06T03:00:29;96698.72;;;21.17;100.00
74868;BME280;63419;42.262;12.210;2023-08-06T03:02:55;96694.91;;;21.19;100.00
74868;BME280;63419;42.262;12.210;2023-08-06T03:05:21;96697.13;;;21.01;100.00
74868;BME280;63419;42.262;12.210;2023-08-06T03:07:47;96694.75;;;21.06;100.00
74868;BME280;63419;42.262;12.210;2023-08-06T03:10:13;96691.50;;;21.04;100.00
74868;BME280;63419;42.262;12.210;2023-08-06T03:12:40;96703.31;;;20.63;100.00
74868;BME280;63419;42.262;12.210;2023-08-06T03:15:06;96688.28;;;20.87;100.00
74868;BME280;63419;42.262;12.210;2023-08-06T03:17:33;96686.19;;;20.97;100.00
74868;BME280;63419;42.262;12.210;2023-08-06T03:19:59;96685.91;;;20.92;100.00
74868;BME280;63419;42.262;12.210;2023-08-06T03:22:25;96702.84;;;20.75;100.00
74868;BME280;63419;42.262;12.210;2023-08-06T03:24:51;96694.63;;;20.78;100.00
74868;BME280;63419;42.262;12.210;2023-08-06T03:27:18;96683.22;;;20.85;100.00
74868;BME280;63419;42.262;12.210;2023-08-06T03:29:44;96676.50;;;20.98;100.00
74868;BME280;63419;42.262;12.210;2023-08-06T03:32:10;96675.84;;;21.10;100.00
74868;BME280;63419;42.262;12.210;2023-08-06T03:34:36;96676.69;;;21.33;100.00
74868;BME280;63419;42.262;12.210;2023-08-06T03:37:02;96682.16;;;21.16;100.00
74868;BME280;63419;42.262;12.210;2023-08-06T03:39:28;96652.13;;;21.40;100.00
74868;BME280;63419;42.262;12.210;2023-08-06T03:41:55;96652.13;;;21.55;100.00
74868;BME280;63419;42.262;12.210;2023-08-06T03:44:21;96657.09;;;21.72;100.00
74868;BME280;63419;42.262;12.210;2023-08-06T03:46:47;96655.28;;;21.51;100.00
74868;BME280;63419;42.262;12.210;2023-08-06T03:49:13;96660.09;;;21.47;100.00
74868;BME280;63419;42.262;12.210;2023-08-06T03:51:39;96694.03;;;20.08;100.00
74868;BME280;63419;42.262;12.210;2023-08-06T03:54:05;96677.50;;;20.97;100.00
74868;BME280;63419;42.262;12.210;2023-08-06T03:56:31;96670.31;;;21.20;100.00
74868;BME280;63419;42.262;12.210;2023-08-06T03:58:57;96670.22;;;21.14;100.00
74868;BME280;63419;42.262;12.210;2023-08-06T04:01:23;96666.59;;;20.78;100.00
74868;BME280;63419;42.262;12.210;2023-08-06T04:03:49;96656.47;;;21.11;100.00
74868;BME280;63419;42.262;12.210;2023-08-06T04:06:15;96649.31;;;21.20;100.00
74868;BME280;63419;42.262;12.210;2023-08-06T04:08:41;96660.97;;;21.54;100.00
74868;BME280;63419;42.262;12.210;2023-08-06T04:11:07;96651.16;;;21.63;100.00
74868;BME280;63419;42.262;12.210;2023-08-06T04:13:34;96656.22;;;21.64;100.00
74868;BME280;63419;42.262;12.210;2023-08-06T04:16:03;96652.31;;;21.39;100.00
74868;BME280;63419;42.262;12.210;2023-08-06T04:18:29;96661.19;;;21.16;100.00
74868;BME280;63419;42.262;12.210;2023-08-06T04:20:56;96670.84;;;21.16;100.00
74868;BME280;63419;42.262;12.210;2023-08-06T04:23:23;96657.47;;;21.47;100.00
74868;BME280;63419;42.262;12.210;2023-08-06T04:25:50;96660.13;;;21.32;100.00
74868;BME280;63419;42.262;12.210;2023-08-06T04:28:16;96664.09;;;21.06;100.00
74868;BME280;63419;42.262;12.210;2023-08-06T04:30:42;96664.00;;;21.36;100.00
74868;BME280;63419;42.262;12.210;2023-08-06T04:33:08;96669.19;;;21.29;100.00
74868;BME280;63419;42.262;12.210;2023-08-06T04:35:34;96668.38;;;21.29;100.00
74868;BME280;63419;42.262;12.210;2023-08-06T04:38:00;96671.69;;;21.38;100.00
74868;BME280;63419;42.262;12.210;2023-08-06T04:40:26;96660.94;;;21.33;100.00
74868;BME280;63419;42.262;12.210;2023-08-06T04:42:53;96657.78;;;21.59;100.00
74868;BME280;63419;42.262;12.210;2023-08-06T04:45:19;96674.47;;;21.51;100.00
74868;BME280;63419;42.262;12.210;2023-08-06T04:47:45;96667.06;;;21.40;100.00
74868;BME280;63419;42.262;12.210;2023-08-06T04:50:11;96654.75;;;21.83;100.00
74868;BME280;63419;42.262;12.210;2023-08-06T04:52:38;96662.69;;;21.90;100.00
74868;BME280;63419;42.262;12.210;2023-08-06T04:55:04;96656.34;;;22.06;100.00
74868;BME280;63419;42.262;12.210;2023-08-06T04:57:32;96640.34;;;22.64;100.00
74868;BME280;63419;42.262;12.210;2023-08-06T04:59:58;96653.75;;;22.13;100.00
74868;BME280;63419;42.262;12.210;2023-08-06T05:02:24;96657.00;;;22.15;100.00
74868;BME280;63419;42.262;12.210;2023-08-06T05:04:50;96665.78;;;21.72;100.00
74868;BME280;63419;42.262;12.210;2023-08-06T05:07:16;96656.91;;;22.30;100.00
74868;BME280;63419;42.262;12.210;2023-08-06T05:09:42;96645.41;;;22.72;100.00
74868;BME280;63419;42.262;12.210;2023-08-06T05:12:09;96642.41;;;22.75;100.00
74868;BME280;63419;42.262;12.210;2023-08-06T05:14:36;96635.81;;;22.99;100.00
74868;BME280;63419;42.262;12.210;2023-08-06T05:17:02;96641.72;;;23.15;100.00
74868;BME280;63419;42.262;12.210;2023-08-06T05:19:30;96629.00;;;23.38;100.00
74868;BME280;63419;42.262;12.210;2023-08-06T05:21:56;96625.00;;;23.56;100.00
74868;BME280;63419;42.262;12.210;2023-08-06T05:24:22;96638.53;;;23.19;100.00
74868;BME280;63419;42.262;12.210;2023-08-06T05:26:48;96632.09;;;23.55;100.00
74868;BME280;63419;42.262;12.210;2023-08-06T05:29:16;96623.56;;;23.73;100.00
74868;BME280;63419;42.262;12.210;2023-08-06T05:31:43;96622.59;;;23.81;100.00
74868;BME280;63419;42.262;12.210;2023-08-06T05:34:09;96613.44;;;23.97;100.00
74868;BME280;63419;42.262;12.210;2023-08-06T05:36:34;96617.06;;;24.16;100.00
74868;BME280;63419;42.262;12.210;2023-08-06T05:39:00;96615.09;;;23.91;100.00
74868;BME280;63419;42.262;12.210;2023-08-06T05:41:26;96609.97;;;24.23;100.00
74868;BME280;63419;42.262;12.210;2023-08-06T05:43:52;96602.06;;;24.10;100.00
74868;BME280;63419;42.262;12.210;2023-08-06T05:46:18;96605.75;;;23.95;100.00
74868;BME280;63419;42.262;12.210;2023-08-06T05:48:45;96595.88;;;24.63;100.00
74868;BME280;63419;42.262;12.210;2023-08-06T05:51:11;96586.44;;;24.87;100.00
74868;BME280;63419;42.262;12.210;2023-08-06T05:53:39;96594.66;;;24.52;100.00
74868;BME280;63419;42.262;12.210;2023-08-06T05:56:05;96605.50;;;24.30;100.00
74868;BME280;63419;42.262;12.210;2023-08-06T05:58:31;96601.16;;;24.56;100.00
74868;BME280;63419;42.262;12.210;2023-08-06T06:00:57;96619.47;;;24.31;100.00
74868;BME280;63419;42.262;12.210;2023-08-06T06:03:23;96605.50;;;24.89;100.00
74868;BME280;63419;42.262;12.210;2023-08-06T06:05:49;96620.97;;;23.93;100.00
74868;BME280;63419;42.262;12.210;2023-08-06T06:08:15;96651.13;;;22.83;100.00
74868;BME280;63419;42.262;12.210;2023-08-06T06:10:41;96650.75;;;22.99;100.00
74868;BME280;63419;42.262;12.210;2023-08-06T06:13:07;96643.41;;;23.23;100.00
74868;BME280;63419;42.262;12.210;2023-08-06T06:15:33;96635.31;;;23.77;100.00
74868;BME280;63419;42.262;12.210;2023-08-06T06:17:59;96613.00;;;24.92;100.00
74868;BME280;63419;42.262;12.210;2023-08-06T06:20:25;96610.44;;;24.72;100.00
74868;BME280;63419;42.262;12.210;2023-08-06T06:22:52;96600.66;;;25.24;100.00
74868;BME280;63419;42.262;12.210;2023-08-06T06:25:18;96609.59;;;24.85;100.00
74868;BME280;63419;42.262;12.210;2023-08-06T06:27:44;96618.00;;;24.42;100.00
74868;BME280;63419;42.262;12.210;2023-08-06T06:30:11;96618.34;;;25.11;100.00
74868;BME280;63419;42.262;12.210;2023-08-06T06:32:38;96609.84;;;25.08;100.00
74868;BME280;63419;42.262;12.210;2023-08-06T06:35:06;96618.88;;;24.94;100.00
74868;BME280;63419;42.262;12.210;2023-08-06T06:37:32;96616.03;;;24.89;100.00
74868;BME280;63419;42.262;12.210;2023-08-06T06:39:58;96618.13;;;24.74;100.00
74868;BME280;63419;42.262;12.210;2023-08-06T06:42:24;96623.25;;;25.07;100.00
74868;BME280;63419;42.262;12.210;2023-08-06T06:44:51;96624.91;;;25.01;100.00
74868;BME280;63419;42.262;12.210;2023-08-06T06:47:17;96625.47;;;24.65;100.00
74868;BME280;63419;42.262;12.210;2023-08-06T06:49:43;96625.75;;;24.95;100.00
74868;BME280;63419;42.262;12.210;2023-08-06T06:52:09;96624.09;;;25.01;100.00
74868;BME280;63419;42.262;12.210;2023-08-06T06:54:37;96617.59;;;25.03;100.00
74868;BME280;63419;42.262;12.210;2023-08-06T06:57:03;96613.50;;;25.46;100.00
74868;BME280;63419;42.262;12.210;2023-08-06T06:59:29;96622.13;;;25.60;100.00
74868;BME280;63419;42.262;12.210;2023-08-06T07:01:55;96639.19;;;24.87;100.00
74868;BME280;63419;42.262;12.210;2023-08-06T07:04:21;96630.94;;;25.47;100.00
74868;BME280;63419;42.262;12.210;2023-08-06T07:06:48;96626.75;;;25.90;100.00
74868;BME280;63419;42.262;12.210;2023-08-06T07:09:14;96625.72;;;25.91;100.00
74868;BME280;63419;42.262;12.210;2023-08-06T07:11:40;96619.41;;;26.17;100.00
74868;BME280;63419;42.262;12.210;2023-08-06T07:14:09;96632.28;;;26.32;100.00
74868;BME280;63419;42.262;12.210;2023-08-06T07:16:35;96652.22;;;25.52;100.00
74868;BME280;63419;42.262;12.210;2023-08-06T07:19:01;96639.03;;;26.28;100.00
74868;BME280;63419;42.262;12.210;2023-08-06T07:21:27;96611.69;;;27.62;100.00
74868;BME280;63419;42.262;12.210;2023-08-06T07:23:53;96628.50;;;27.25;100.00
74868;BME280;63419;42.262;12.210;2023-08-06T07:26:39;96612.72;;;27.61;100.00
74868;BME280;63419;42.262;12.210;2023-08-06T07:29:05;96602.13;;;28.43;100.00
74868;BME280;63419;42.262;12.210;2023-08-06T07:31:31;96597.13;;;28.88;100.00
74868;BME280;63419;42.262;12.210;2023-08-06T07:33:57;96602.88;;;28.67;100.00
74868;BME280;63419;42.262;12.210;2023-08-06T07:36:23;96586.00;;;29.65;100.00
74868;BME280;63419;42.262;12.210;2023-08-06T07:38:49;96583.81;;;28.99;100.00
74868;BME280;63419;42.262;12.210;2023-08-06T07:41:22;96580.06;;;29.75;100.00
74868;BME280;63419;42.262;12.210;2023-08-06T07:43:48;96615.88;;;28.17;100.00
74868;BME280;63419;42.262;12.210;2023-08-06T07:46:15;96652.09;;;26.96;100.00
74868;BME280;63419;42.262;12.210;2023-08-06T07:48:41;96661.28;;;26.38;100.00
74868;BME280;63419;42.262;12.210;2023-08-06T07:51:07;96696.78;;;24.90;100.00
74868;BME280;63419;42.262;12.210;2023-08-06T07:53:33;96650.06;;;27.29;100.00
74868;BME280;63419;42.262;12.210;2023-08-06T07:55:59;96636.00;;;27.70;100.00
74868;BME280;63419;42.262;12.210;2023-08-06T07:58:28;96657.13;;;26.68;100.00
74868;BME280;63419;42.262;12.210;2023-08-06T08:00:55;96638.81;;;27.33;100.00
74868;BME280;63419;42.262;12.210;2023-08-06T08:03:21;96606.38;;;29.26;100.00
74868;BME280;63419;42.262;12.210;2023-08-06T08:05:47;96589.78;;;29.07;100.00
74868;BME280;63419;42.262;12.210;2023-08-06T08:08:14;96601.28;;;28.66;100.00
74868;BME280;63419;42.262;12.210;2023-08-06T08:10:40;96619.91;;;28.31;100.00
74868;BME280;63419;42.262;12.210;2023-08-06T08:13:06;96605.97;;;29.05;100.00
74868;BME280;63419;42.262;12.210;2023-08-06T08:15:33;96590.75;;;29.46;100.00
74868;BME280;63419;42.262;12.210;2023-08-06T08:18:00;96597.59;;;29.59;100.00
74868;BME280;63419;42.262;12.210;2023-08-06T08:20:26;96613.31;;;29.43;100.00
74868;BME280;63419;42.262;12.210;2023-08-06T08:22:59;96603.06;;;29.18;100.00
74868;BME280;63419;42.262;12.210;2023-08-06T08:25:27;96594.63;;;29.10;100.00
74868;BME280;63419;42.262;12.210;2023-08-06T08:27:55;96621.22;;;27.51;100.00
74868;BME280;63419;42.262;12.210;2023-08-06T08:30:22;96646.50;;;26.31;100.00
74868;BME280;63419;42.262;12.210;2023-08-06T08:32:48;96696.53;;;24.20;100.00
74868;BME280;63419;42.262;12.210;2023-08-06T08:35:15;96672.25;;;25.35;100.00
74868;BME280;63419;42.262;12.210;2023-08-06T08:37:43;96637.56;;;26.13;100.00
74868;BME280;63419;42.262;12.210;2023-08-06T08:40:10;96651.97;;;25.35;100.00
74868;BME280;63419;42.262;12.210;2023-08-06T08:42:37;96628.03;;;26.49;100.00
74868;BME280;63419;42.262;12.210;2023-08-06T08:45:12;96605.72;;;26.94;100.00
74868;BME280;63419;42.262;12.210;2023-08-06T08:47:41;96590.63;;;27.90;100.00
74868;BME280;63419;42.262;12.210;2023-08-06T08:50:10;96610.59;;;27.27;100.00
74868;BME280;63419;42.262;12.210;2023-08-06T08:52:39;96598.47;;;27.97;100.00
74868;BME280;63419;42.262;12.210;2023-08-06T08:55:09;96608.81;;;27.87;100.00
74868;BME280;63419;42.262;12.210;2023-08-06T08:57:36;96631.13;;;27.44;100.00
74868;BME280;63419;42.262;12.210;2023-08-06T09:00:03;96647.59;;;26.05;100.00
74868;BME280;63419;42.262;12.210;2023-08-06T09:02:33;96645.97;;;26.22;100.00
74868;BME280;63419;42.262;12.210;2023-08-06T09:05:01;96647.19;;;25.76;100.00
74868;BME280;63419;42.262;12.210;2023-08-06T09:07:35;96634.03;;;26.19;100.00
74868;BME280;63419;42.262;12.210;2023-08-06T09:10:10;96619.69;;;27.13;100.00
74868;BME280;63419;42.262;12.210;2023-08-06T09:12:37;96658.19;;;25.02;100.00
74868;BME280;63419;42.262;12.210;2023-08-06T09:15:04;96657.25;;;25.22;100.00
74868;BME280;63419;42.262;12.210;2023-08-06T09:17:31;96664.00;;;25.18;100.00
74868;BME280;63419;42.262;12.210;2023-08-06T09:19:58;96618.09;;;27.12;100.00
74868;BME280;63419;42.262;12.210;2023-08-06T09:22:33;96598.84;;;27.47;100.00
74868;BME280;63419;42.262;12.210;2023-08-06T09:25:00;96590.16;;;28.05;100.00
74868;BME280;63419;42.262;12.210;2023-08-06T09:27:27;96619.47;;;26.84;100.00
74868;BME280;63419;42.262;12.210;2023-08-06T09:29:53;96627.19;;;27.04;100.00
74868;BME280;63419;42.262;12.210;2023-08-06T09:32:19;96587.47;;;28.41;100.00
74868;BME280;63419;42.262;12.210;2023-08-06T09:34:46;96555.16;;;29.64;100.00
74868;BME280;63419;42.262;12.210;2023-08-06T09:37:13;96576.88;;;28.81;100.00
74868;BME280;63419;42.262;12.210;2023-08-06T09:39:40;96574.25;;;28.29;100.00
74868;BME280;63419;42.262;12.210;2023-08-06T09:42:07;96611.28;;;26.37;100.00
74868;BME280;63419;42.262;12.210;2023-08-06T09:44:34;96593.03;;;27.80;100.00
74868;BME280;63419;42.262;12.210;2023-08-06T09:47:03;96600.22;;;27.07;100.00
74868;BME280;63419;42.262;12.210;2023-08-06T09:52:00;96559.59;;;28.96;100.00
74868;BME280;63419;42.262;12.210;2023-08-06T09:54:27;96589.34;;;27.15;100.00
74868;BME280;63419;42.262;12.210;2023-08-06T09:56:56;96606.47;;;26.27;100.00
74868;BME280;63419;42.262;12.210;2023-08-06T09:59:42;96537.09;;;30.66;100.00
74868;BME280;63419;42.262;12.210;2023-08-06T10:02:13;96527.81;;;31.23;100.00
74868;BME280;63419;42.262;12.210;2023-08-06T10:04:40;96568.44;;;28.56;100.00
74868;BME280;63419;42.262;12.210;2023-08-06T10:07:09;96558.56;;;28.97;100.00
74868;BME280;63419;42.262;12.210;2023-08-06T10:09:35;96568.66;;;28.42;100.00
74868;BME280;63419;42.262;12.210;2023-08-06T10:12:02;96543.09;;;29.73;100.00
74868;BME280;63419;42.262;12.210;2023-08-06T10:14:32;96528.84;;;31.22;100.00
74868;BME280;63419;42.262;12.210;2023-08-06T10:17:00;96523.84;;;31.63;100.00
74868;BME280;63419;42.262;12.210;2023-08-06T10:19:27;96527.47;;;31.90;100.00
74868;BME280;63419;42.262;12.210;2023-08-06T10:22:15;96502.19;;;33.53;100.00
74868;BME280;63419;42.262;12.210;2023-08-06T10:24:55;96515.03;;;32.84;100.00
74868;BME280;63419;42.262;12.210;2023-08-06T10:29:49;96577.53;;;28.89;100.00
74868;BME280;63419;42.262;12.210;2023-08-06T10:32:16;96582.53;;;28.73;100.00
74868;BME280;63419;42.262;12.210;2023-08-06T10:34:56;96595.16;;;28.66;100.00
74868;BME280;63419;42.262;12.210;2023-08-06T10:37:24;96559.13;;;30.89;100.00
74868;BME280;63419;42.262;12.210;2023-08-06T10:40:01;96557.88;;;31.94;100.00
74868;BME280;63419;42.262;12.210;2023-08-06T10:42:30;96528.16;;;33.68;100.00
74868;BME280;63419;42.262;12.210;2023-08-06T10:45:28;96518.09;;;34.30;100.00
74868;BME280;63419;42.262;12.210;2023-08-06T10:47:57;96548.66;;;32.75;100.00
74868;BME280;63419;42.262;12.210;2023-08-06T10:50:24;96581.47;;;30.39;100.00
74868;BME280;63419;42.262;12.210;2023-08-06T10:52:52;96611.16;;;28.71;100.00
74868;BME280;63419;42.262;12.210;2023-08-06T10:55:49;96571.34;;;31.72;100.00
74868;BME280;63419;42.262;12.210;2023-08-06T10:58:16;96533.69;;;34.02;100.00
74868;BME280;63419;42.262;12.210;2023-08-06T11:00:42;96512.63;;;35.88;100.00
74868;BME280;63419;42.262;12.210;2023-08-06T11:03:09;96550.16;;;32.45;100.00
74868;BME280;63419;42.262;12.210;2023-08-06T11:05:37;96561.34;;;32.42;100.00
74868;BME280;63419;42.262;12.210;2023-08-06T11:08:03;96556.81;;;32.48;100.00
74868;BME280;63419;42.262;12.210;2023-08-06T11:10:29;96538.84;;;33.57;100.00
74868;BME280;63419;42.262;12.210;2023-08-06T11:13:03;96555.06;;;32.74;100.00
74868;BME280;63419;42.262;12.210;2023-08-06T11:15:31;96496.09;;;36.67;100.00
74868;BME280;63419;42.262;12.210;2023-08-06T11:17:58;96490.44;;;36.88;100.00
74868;BME280;63419;42.262;12.210;2023-08-06T11:20:25;96520.22;;;34.83;100.00
74868;BME280;63419;42.262;12.210;2023-08-06T11:22:51;96577.72;;;30.34;100.00
74868;BME280;63419;42.262;12.210;2023-08-06T11:25:21;96616.75;;;27.63;100.00
74868;BME280;63419;42.262;12.210;2023-08-06T11:27:47;96598.09;;;28.81;100.00
74868;BME280;63419;42.262;12.210;2023-08-06T11:30:33;96558.25;;;31.33;100.00
74868;BME280;63419;42.262;12.210;2023-08-06T11:33:00;96565.97;;;30.13;100.00
74868;BME280;63419;42.262;12.210;2023-08-06T11:35:27;96577.28;;;30.04;100.00
74868;BME280;63419;42.262;12.210;2023-08-06T11:37:54;96539.56;;;32.71;100.00
74868;BME280;63419;42.262;12.210;2023-08-06T11:40:20;96567.22;;;30.72;100.00
74868;BME280;63419;42.262;12.210;2023-08-06T11:42:47;96597.88;;;28.07;100.00
74868;BME280;63419;42.262;12.210;2023-08-06T11:45:14;96593.06;;;28.68;100.00
74868;BME280;63419;42.262;12.210;2023-08-06T11:47:40;96570.91;;;30.44;100.00
74868;BME280;63419;42.262;12.210;2023-08-06T11:50:07;96592.34;;;28.08;100.00
74868;BME280;63419;42.262;12.210;2023-08-06T11:52:34;96597.88;;;27.83;100.00
74868;BME280;63419;42.262;12.210;2023-08-06T11:55:02;96583.09;;;28.35;100.00
74868;BME280;63419;42.262;12.210;2023-08-06T11:57:30;96528.81;;;32.55;100.00
74868;BME280;63419;42.262;12.210;2023-08-06T12:00:04;96496.00;;;35.62;100.00
74868;BME280;63419;42.262;12.210;2023-08-06T12:02:33;96562.13;;;31.20;100.00
74868;BME280;63419;42.262;12.210;2023-08-06T12:05:31;96557.75;;;30.15;100.00
74868;BME280;63419;42.262;12.210;2023-08-06T12:08:02;96538.78;;;32.12;100.00
74868;BME280;63419;42.262;12.210;2023-08-06T12:10:32;96566.13;;;30.24;100.00
74868;BME280;63419;42.262;12.210;2023-08-06T12:12:58;96533.59;;;32.43;100.00
74868;BME280;63419;42.262;12.210;2023-08-06T12:15:25;96522.00;;;33.26;100.00
74868;BME280;63419;42.262;12.210;2023-08-06T12:17:51;96489.41;;;35.49;100.00
74868;BME280;63419;42.262;12.210;2023-08-06T12:20:18;96485.00;;;35.63;100.00
74868;BME280;63419;42.262;12.210;2023-08-06T12:22:44;96492.03;;;35.54;100.00
74868;BME280;63419;42.262;12.210;2023-08-06T12:25:12;96515.31;;;33.70;100.00
74868;BME280;63419;42.262;12.210;2023-08-06T12:27:41;96515.03;;;33.61;100.00
74868;BME280;63419;42.262;12.210;2023-08-06T12:30:09;96503.63;;;34.26;100.00
74868;BME280;63419;42.262;12.210;2023-08-06T12:32:36;96477.22;;;36.34;100.00
74868;BME280;63419;42.262;12.210;2023-08-06T12:35:21;96533.19;;;33.03;100.00
74868;BME280;63419;42.262;12.210;2023-08-06T12:37:48;96496.25;;;35.02;100.00
74868;BME280;63419;42.262;12.210;2023-08-06T12:40:14;96531.91;;;33.15;100.00
74868;BME280;63419;42.262;12.210;2023-08-06T12:42:41;96524.16;;;33.55;100.00
74868;BME280;63419;42.262;12.210;2023-08-06T12:45:07;96523.84;;;33.87;100.00
74868;BME280;63419;42.262;12.210;2023-08-06T12:47:34;96480.84;;;37.33;100.00
74868;BME280;63419;42.262;12.210;2023-08-06T12:50:00;96463.25;;;38.24;100.00
74868;BME280;63419;42.262;12.210;2023-08-06T12:52:26;96532.97;;;33.55;100.00
74868;BME280;63419;42.262;12.210;2023-08-06T12:54:52;96532.13;;;33.81;100.00
74868;BME280;63419;42.262;12.210;2023-08-06T12:57:18;96516.94;;;34.46;100.00